createdAt,value
2018-08-08T00:00:32.435Z,0.00
2018-08-08T00:01:32.459Z,0.00
2018-08-08T00:13:32.816Z,0.00
2018-08-08T00:14:32.841Z,0.00
2018-08-08T00:15:32.869Z,0.00
2018-08-08T00:16:32.901Z,0.00
2018-08-08T00:17:32.924Z,0.00
2018-08-08T00:18:32.955Z,0.00
2018-08-08T00:19:32.985Z,0.00
2018-08-08T00:20:33.013Z,0.00
2018-08-08T00:21:33.045Z,0.00
2018-08-08T00:22:33.072Z,0.00
2018-08-08T00:23:33.129Z,0.00
2018-08-08T00:24:33.133Z,4.00
2018-08-08T00:25:33.162Z,4.00
2018-08-08T00:26:33.198Z,0.00
2018-08-08T00:27:33.221Z,0.00
2018-08-08T00:28:33.249Z,0.00
2018-08-08T00:29:33.274Z,4.00
2018-08-08T00:30:33.302Z,0.00
2018-08-08T00:31:33.333Z,0.00
2018-08-08T00:32:33.365Z,0.00
2018-08-08T00:33:33.396Z,0.00
2018-08-08T00:34:33.428Z,0.00
2018-08-08T00:35:33.453Z,0.00
2018-08-08T00:36:33.478Z,0.00
2018-08-08T00:37:33.651Z,0.00
2018-08-08T00:38:33.533Z,0.00
2018-08-08T00:39:33.560Z,8.00
2018-08-08T00:40:33.587Z,0.00
2018-08-08T00:41:33.621Z,0.00
2018-08-08T00:42:33.654Z,0.00
2018-08-08T00:43:33.684Z,0.00
2018-08-08T00:44:33.712Z,0.00
2018-08-08T00:45:33.739Z,4.00
2018-08-08T00:46:33.764Z,0.00
2018-08-08T00:47:33.791Z,0.00
2018-08-08T00:48:33.824Z,0.00
2018-08-08T00:49:33.848Z,4.00
2018-08-08T00:50:33.884Z,0.00
2018-08-08T00:51:33.910Z,0.00
2018-08-08T00:52:33.936Z,0.00
2018-08-08T00:53:33.962Z,0.00
2018-08-08T00:54:33.998Z,0.00
2018-08-08T00:55:34.026Z,0.00
2018-08-08T00:56:34.051Z,0.00
2018-08-08T00:57:34.085Z,0.00
2018-08-08T00:58:34.118Z,0.00
2018-08-08T00:59:34.146Z,0.00
2018-08-08T01:00:34.174Z,0.00
2018-08-08T01:01:34.198Z,0.00
2018-08-08T01:02:34.228Z,0.00
2018-08-08T01:03:34.256Z,0.00
2018-08-08T01:04:34.282Z,0.00
2018-08-08T01:05:34.331Z,0.00
2018-08-08T01:06:34.360Z,0.00
2018-08-08T01:07:34.385Z,0.00
2018-08-08T01:08:34.446Z,0.00
2018-08-08T01:09:34.427Z,0.00
2018-08-08T01:10:34.456Z,0.00
2018-08-08T01:11:34.486Z,0.00
2018-08-08T01:12:34.532Z,0.00
2018-08-08T01:13:34.562Z,0.00
2018-08-08T01:14:34.572Z,0.00
2018-08-08T01:15:34.618Z,0.00
2018-08-08T01:16:34.646Z,0.00
2018-08-08T01:17:34.662Z,0.00
2018-08-08T01:18:34.702Z,0.00
2018-08-08T01:19:35.434Z,0.00
2018-08-08T01:20:34.766Z,0.00
2018-08-08T01:21:34.776Z,0.00
2018-08-08T01:22:34.818Z,0.00
2018-08-08T01:23:34.853Z,0.00
2018-08-08T01:24:34.866Z,0.00
2018-08-08T01:25:34.898Z,0.00
2018-08-08T01:26:34.922Z,0.00
2018-08-08T01:27:34.948Z,0.00
2018-08-08T01:28:34.999Z,0.00
2018-08-08T01:29:35.210Z,0.00
2018-08-08T01:30:35.047Z,0.00
2018-08-08T01:31:35.384Z,0.00
2018-08-08T01:32:35.086Z,0.00
2018-08-08T01:33:35.131Z,0.00
2018-08-08T01:34:35.176Z,0.00
2018-08-08T01:35:35.194Z,0.00
2018-08-08T01:36:35.219Z,0.00
2018-08-08T01:37:35.555Z,0.00
2018-08-08T01:38:35.280Z,0.00
2018-08-08T01:39:35.610Z,0.00
2018-08-08T01:41:35.350Z,0.00
2018-08-08T01:42:35.400Z,0.00
2018-08-08T01:43:35.612Z,0.00
2018-08-08T01:44:35.632Z,0.00
2018-08-08T01:45:35.630Z,0.00
2018-08-08T01:46:35.506Z,0.00
2018-08-08T01:47:35.847Z,0.00
2018-08-08T01:48:35.569Z,0.00
2018-08-08T01:49:35.778Z,0.00
2018-08-08T01:50:35.617Z,0.00
2018-08-08T01:51:35.632Z,0.00
2018-08-08T01:52:35.672Z,0.00
2018-08-08T01:53:35.911Z,0.00
2018-08-08T01:54:35.741Z,0.00
2018-08-08T01:55:35.755Z,0.00
2018-08-08T01:56:35.800Z,0.00
2018-08-08T01:59:35.868Z,0.00
2018-08-08T02:00:36.090Z,0.00
2018-08-08T02:01:35.922Z,0.00
2018-08-08T02:02:35.966Z,0.00
2018-08-08T02:03:35.981Z,0.00
2018-08-08T02:04:36.228Z,0.00
2018-08-08T02:06:36.084Z,0.00
2018-08-08T02:07:36.288Z,0.00
2018-08-08T02:08:36.120Z,0.00
2018-08-08T02:09:36.148Z,0.00
2018-08-08T02:10:36.190Z,0.00
2018-08-08T02:11:36.412Z,0.00
2018-08-08T02:12:36.230Z,0.00
2018-08-08T02:13:36.260Z,0.00
2018-08-08T02:14:36.290Z,0.00
2018-08-08T02:15:36.332Z,0.00
2018-08-08T02:16:36.370Z,0.00
2018-08-08T02:17:36.392Z,0.00
2018-08-08T02:18:36.406Z,0.00
2018-08-08T02:19:36.436Z,0.00
2018-08-08T02:20:36.464Z,0.00
2018-08-08T02:21:36.598Z,0.00
2018-08-08T02:22:36.522Z,0.00
2018-08-08T02:23:36.552Z,0.00
2018-08-08T02:25:36.608Z,0.00
2018-08-08T02:26:36.630Z,4.00
2018-08-08T02:27:36.658Z,0.00
2018-08-08T02:28:36.690Z,0.00
2018-08-08T02:29:36.720Z,0.00
2018-08-08T02:30:36.746Z,0.00
2018-08-08T02:31:36.776Z,0.00
2018-08-08T02:32:36.801Z,0.00
2018-08-08T02:33:36.847Z,0.00
2018-08-08T02:34:36.862Z,0.00
2018-08-08T02:35:37.070Z,0.00
2018-08-08T02:36:36.920Z,4.00
2018-08-08T02:37:36.944Z,0.00
2018-08-08T02:38:36.981Z,0.00
2018-08-08T02:39:37.011Z,0.00
2018-08-08T02:40:37.031Z,0.00
2018-08-08T02:41:37.062Z,0.00
2018-08-08T02:42:37.092Z,0.00
2018-08-08T02:43:37.116Z,0.00
2018-08-08T02:44:37.144Z,0.00
2018-08-08T02:45:37.173Z,0.00
2018-08-08T02:46:37.201Z,0.00
2018-08-08T02:47:37.235Z,0.00
2018-08-08T02:48:37.262Z,0.00
2018-08-08T02:49:37.293Z,0.00
2018-08-08T02:50:37.315Z,0.00
2018-08-08T02:51:37.340Z,0.00
2018-08-08T02:52:37.372Z,0.00
2018-08-08T02:53:37.483Z,0.00
2018-08-08T02:54:37.432Z,0.00
2018-08-08T02:55:37.460Z,0.00
2018-08-08T02:56:37.537Z,4.00
2018-08-08T02:57:37.565Z,4.00
2018-08-08T02:58:37.549Z,0.00
2018-08-08T02:59:37.568Z,0.00
2018-08-08T03:00:37.596Z,0.00
2018-08-08T03:01:37.627Z,4.00
2018-08-08T03:02:37.650Z,4.00
2018-08-08T03:03:37.682Z,4.00
2018-08-08T03:04:37.711Z,4.00
2018-08-08T03:05:37.742Z,4.00
2018-08-08T03:06:37.765Z,0.00
2018-08-08T03:07:37.800Z,0.00
2018-08-08T03:08:38.031Z,0.00
2018-08-08T03:09:37.858Z,4.00
2018-08-08T03:10:37.892Z,4.00
2018-08-08T03:11:37.912Z,8.00
2018-08-08T03:12:37.938Z,4.00
2018-08-08T03:13:37.967Z,4.00
2018-08-08T03:14:37.994Z,4.00
2018-08-08T03:15:38.016Z,4.00
2018-08-08T03:16:38.052Z,8.00
2018-08-08T03:17:38.076Z,8.00
2018-08-08T03:18:38.109Z,12.00
2018-08-08T03:19:38.185Z,8.00
2018-08-08T03:20:38.159Z,12.00
2018-08-08T03:21:38.188Z,12.00
2018-08-08T03:22:38.218Z,16.00
2018-08-08T03:23:38.249Z,20.00
2018-08-08T03:24:38.280Z,16.00
2018-08-08T03:25:40.932Z,24.00
2018-08-08T03:26:40.962Z,24.00
2018-08-08T03:27:38.358Z,28.00
2018-08-08T03:28:38.388Z,32.00
2018-08-08T03:33:01.883Z,52.00
2018-08-08T03:34:01.910Z,64.00
2018-08-08T03:35:01.934Z,68.00
2018-08-08T03:36:01.965Z,76.00
2018-08-08T03:37:01.991Z,88.00
2018-08-08T03:38:02.026Z,96.00
2018-08-08T03:39:02.054Z,112.00
2018-08-08T03:40:02.078Z,128.00
2018-08-08T03:41:02.105Z,144.00
2018-08-08T03:42:02.133Z,160.00
2018-08-08T03:43:02.165Z,180.00
2018-08-08T03:44:02.190Z,200.00
2018-08-08T03:45:02.216Z,220.00
2018-08-08T03:46:02.246Z,248.00
2018-08-08T03:47:02.276Z,276.00
2018-08-08T03:48:02.304Z,304.00
2018-08-08T03:49:02.335Z,336.00
2018-08-08T03:50:02.357Z,364.00
2018-08-08T03:51:02.388Z,396.00
2018-08-08T03:52:02.416Z,424.00
2018-08-08T03:53:02.448Z,452.00
2018-08-08T03:54:02.471Z,480.00
2018-08-08T03:55:02.550Z,512.00
2018-08-08T03:56:02.527Z,544.00
2018-08-08T03:57:02.550Z,572.00
2018-08-08T03:58:02.584Z,600.00
2018-08-08T03:59:02.672Z,632.00
2018-08-08T04:00:02.650Z,656.00
2018-08-08T04:01:02.668Z,688.00
2018-08-08T04:02:02.721Z,720.00
2018-08-08T04:03:02.732Z,752.00
2018-08-08T04:04:02.750Z,792.00
2018-08-08T04:05:02.774Z,828.00
2018-08-08T04:06:02.807Z,868.00
2018-08-08T04:07:02.833Z,904.00
2018-08-08T04:08:02.863Z,948.00
2018-08-08T04:09:02.889Z,992.00
2018-08-08T04:10:02.918Z,1036.00
2018-08-08T04:11:02.945Z,1084.00
2018-08-08T04:12:02.981Z,1132.00
2018-08-08T04:13:03.005Z,1188.00
2018-08-08T04:14:03.033Z,1248.00
2018-08-08T04:15:03.063Z,1308.00
2018-08-08T04:16:03.085Z,1372.00
2018-08-08T04:17:03.125Z,1444.00
2018-08-08T04:18:03.145Z,1508.00
2018-08-08T04:19:03.179Z,1576.00
2018-08-08T04:20:03.208Z,1636.00
2018-08-08T04:21:03.234Z,1688.00
2018-08-08T04:22:03.257Z,1740.00
2018-08-08T04:23:03.283Z,1784.00
2018-08-08T04:24:03.319Z,1832.00
2018-08-08T04:25:03.917Z,1872.00
2018-08-08T04:26:03.373Z,1920.00
2018-08-08T04:27:03.397Z,1968.00
2018-08-08T04:28:03.428Z,2004.00
2018-08-08T04:29:03.455Z,2024.00
2018-08-08T04:30:03.484Z,2036.00
2018-08-08T04:31:03.529Z,2032.00
2018-08-08T04:32:03.544Z,2032.00
2018-08-08T04:33:03.563Z,2040.00
2018-08-08T04:34:03.595Z,2036.00
2018-08-08T04:35:03.624Z,2040.00
2018-08-08T04:36:03.652Z,2052.00
2018-08-08T04:37:03.681Z,2064.00
2018-08-08T04:38:03.705Z,2084.00
2018-08-08T04:39:03.738Z,2108.00
2018-08-08T04:40:03.762Z,2132.00
2018-08-08T04:41:03.793Z,2176.00
2018-08-08T04:42:03.823Z,2236.00
2018-08-08T04:43:03.846Z,2288.00
2018-08-08T04:44:03.877Z,2336.00
2018-08-08T04:45:03.908Z,2348.00
2018-08-08T04:46:03.933Z,2356.00
2018-08-08T04:47:03.960Z,2368.00
2018-08-08T04:48:03.989Z,2364.00
2018-08-08T04:49:04.018Z,2380.00
2018-08-08T04:50:04.050Z,2420.00
2018-08-08T04:51:04.074Z,2472.00
2018-08-08T04:52:04.102Z,2536.00
2018-08-08T04:53:04.128Z,2608.00
2018-08-08T04:54:04.161Z,2672.00
2018-08-08T04:55:04.190Z,2716.00
2018-08-08T04:56:04.219Z,2776.00
2018-08-08T04:57:04.242Z,2848.00
2018-08-08T04:58:04.275Z,2916.00
2018-08-08T04:59:04.306Z,2972.00
2018-08-08T05:00:04.347Z,3012.00
2018-08-08T05:01:04.356Z,3052.00
2018-08-08T05:02:04.383Z,3092.00
2018-08-08T05:03:04.413Z,3144.00
2018-08-08T05:04:04.443Z,3204.00
2018-08-08T05:05:04.473Z,3252.00
2018-08-08T05:06:04.497Z,3300.00
2018-08-08T05:07:04.525Z,3352.00
2018-08-08T05:08:04.561Z,3408.00
2018-08-08T05:09:04.583Z,3468.00
2018-08-08T05:10:04.610Z,3512.00
2018-08-08T05:11:04.643Z,3540.00
2018-08-08T05:12:04.671Z,3564.00
2018-08-08T05:13:04.698Z,3588.00
2018-08-08T05:14:04.728Z,3620.00
2018-08-08T05:15:04.751Z,3636.00
2018-08-08T05:16:04.783Z,3660.00
2018-08-08T05:17:04.813Z,3692.00
2018-08-08T05:18:04.841Z,3752.00
2018-08-08T05:19:04.862Z,3812.00
2018-08-08T05:20:04.986Z,3884.00
2018-08-08T05:21:04.924Z,3960.00
2018-08-08T05:22:04.961Z,4040.00
2018-08-08T05:23:04.985Z,4128.00
2018-08-08T05:24:05.006Z,4216.00
2018-08-08T05:25:05.035Z,4292.00
2018-08-08T05:26:05.066Z,4372.00
2018-08-08T05:27:05.102Z,4452.00
2018-08-08T05:28:05.129Z,4536.00
2018-08-08T05:29:05.155Z,4584.00
2018-08-08T05:30:05.176Z,4632.00
2018-08-08T05:31:05.217Z,4672.00
2018-08-08T05:32:05.237Z,4724.00
2018-08-08T05:33:05.269Z,4796.00
2018-08-08T05:34:05.297Z,4876.00
2018-08-08T05:35:05.322Z,4976.00
2018-08-08T05:36:05.356Z,5068.00
2018-08-08T05:37:05.378Z,5152.00
2018-08-08T05:38:05.409Z,5216.00
2018-08-08T05:39:05.437Z,5272.00
2018-08-08T05:40:05.466Z,5328.00
2018-08-08T05:41:05.493Z,5400.00
2018-08-08T05:42:05.522Z,5476.00
2018-08-08T05:43:05.587Z,5560.00
2018-08-08T05:44:05.581Z,5632.00
2018-08-08T05:45:05.609Z,5696.00
2018-08-08T05:46:05.636Z,5740.00
2018-08-08T05:47:05.667Z,5788.00
2018-08-08T05:48:05.693Z,5820.00
2018-08-08T05:49:05.756Z,5824.00
2018-08-08T05:50:05.763Z,5820.00
2018-08-08T05:51:05.782Z,5816.00
2018-08-08T05:52:05.804Z,5828.00
2018-08-08T05:53:05.836Z,5852.00
2018-08-08T05:54:05.866Z,5872.00
2018-08-08T05:55:05.903Z,5908.00
2018-08-08T05:56:05.922Z,5944.00
2018-08-08T05:57:05.949Z,5976.00
2018-08-08T05:58:05.981Z,6032.00
2018-08-08T05:59:06.012Z,6100.00
2018-08-08T06:00:06.038Z,6180.00
2018-08-08T06:01:06.071Z,6244.00
2018-08-08T06:02:06.098Z,6296.00
2018-08-08T06:03:06.128Z,6348.00
2018-08-08T06:04:06.157Z,6388.00
2018-08-08T06:05:06.186Z,6424.00
2018-08-08T06:06:06.210Z,6472.00
2018-08-08T06:07:06.244Z,6516.00
2018-08-08T06:08:06.302Z,6556.00
2018-08-08T06:09:06.295Z,6600.00
2018-08-08T06:10:06.325Z,6644.00
2018-08-08T06:11:06.367Z,6692.00
2018-08-08T06:12:06.382Z,6752.00
2018-08-08T06:13:06.420Z,6804.00
2018-08-08T06:14:06.448Z,6884.00
2018-08-08T06:15:06.471Z,6900.00
2018-08-08T06:16:06.506Z,6944.00
2018-08-08T06:17:06.530Z,6980.00
2018-08-08T06:18:06.566Z,7024.00
2018-08-08T06:19:06.594Z,7056.00
2018-08-08T06:20:06.620Z,7076.00
2018-08-08T06:21:06.645Z,7116.00
2018-08-08T06:22:06.677Z,7144.00
2018-08-08T06:23:06.706Z,7172.00
2018-08-08T06:24:06.745Z,7196.00
2018-08-08T06:25:06.765Z,7212.00
2018-08-08T06:26:06.798Z,7216.00
2018-08-08T06:27:06.823Z,7224.00
2018-08-08T06:28:06.851Z,7236.00
2018-08-08T06:29:06.894Z,7252.00
2018-08-08T06:30:06.911Z,7256.00
2018-08-08T06:31:06.944Z,7236.00
2018-08-08T06:32:06.970Z,7224.00
2018-08-08T06:33:07.005Z,7176.00
2018-08-08T06:34:07.024Z,7136.00
2018-08-08T06:35:07.055Z,7092.00
2018-08-08T06:36:07.087Z,7052.00
2018-08-08T06:37:07.116Z,7036.00
2018-08-08T06:38:07.143Z,7008.00
2018-08-08T06:39:07.174Z,6980.00
2018-08-08T06:40:07.200Z,6952.00
2018-08-08T06:41:07.232Z,6904.00
2018-08-08T06:42:07.259Z,6848.00
2018-08-08T06:43:07.292Z,6808.00
2018-08-08T06:44:07.358Z,6776.00
2018-08-08T06:45:07.352Z,6760.00
2018-08-08T06:46:07.388Z,6748.00
2018-08-08T06:47:07.413Z,6712.00
2018-08-08T06:48:07.436Z,6680.00
2018-08-08T06:49:07.464Z,6648.00
2018-08-08T06:50:07.496Z,6608.00
2018-08-08T06:51:07.517Z,6556.00
2018-08-08T06:52:07.560Z,6504.00
2018-08-08T06:53:07.625Z,6452.00
2018-08-08T06:54:07.631Z,6408.00
2018-08-08T06:55:07.641Z,6384.00
2018-08-08T06:56:07.672Z,6364.00
2018-08-08T06:57:07.699Z,6376.00
2018-08-08T06:58:07.730Z,6396.00
2018-08-08T06:59:07.753Z,6448.00
2018-08-08T07:00:07.789Z,6540.00
2018-08-08T07:01:07.821Z,6632.00
2018-08-08T07:02:07.845Z,6732.00
2018-08-08T07:03:07.870Z,6800.00
2018-08-08T07:04:07.911Z,6864.00
2018-08-08T07:05:07.947Z,6948.00
2018-08-08T07:06:07.961Z,7048.00
2018-08-08T07:07:07.988Z,7172.00
2018-08-08T07:08:08.022Z,7300.00
2018-08-08T07:09:08.047Z,7452.00
2018-08-08T07:10:08.077Z,7616.00
2018-08-08T07:11:08.107Z,7788.00
2018-08-08T07:12:08.133Z,7968.00
2018-08-08T07:13:08.163Z,8124.00
2018-08-08T07:14:08.196Z,8284.00
2018-08-08T07:15:08.224Z,8432.00
2018-08-08T07:16:08.249Z,8588.00
2018-08-08T07:17:08.281Z,8772.00
2018-08-08T07:18:08.311Z,8968.00
2018-08-08T07:19:08.341Z,9152.00
2018-08-08T07:20:08.372Z,9332.00
2018-08-08T07:21:08.391Z,9504.00
2018-08-08T07:22:08.425Z,9640.00
2018-08-08T07:23:08.472Z,9772.00
2018-08-08T07:24:08.491Z,9924.00
2018-08-08T07:25:08.507Z,10112.00
2018-08-08T07:26:08.545Z,10308.00
2018-08-08T07:27:08.569Z,10532.00
2018-08-08T07:28:08.599Z,10752.00
2018-08-08T07:29:08.629Z,10944.00
2018-08-08T07:30:08.655Z,11116.00
2018-08-08T07:31:08.689Z,11248.00
2018-08-08T07:32:08.720Z,11412.00
2018-08-08T07:33:08.747Z,11600.00
2018-08-08T07:34:08.769Z,11784.00
2018-08-08T07:35:08.801Z,11956.00
2018-08-08T07:36:08.837Z,12104.00
2018-08-08T07:37:08.862Z,12232.00
2018-08-08T07:38:08.889Z,12368.00
2018-08-08T07:39:08.918Z,12504.00
2018-08-08T07:40:08.948Z,12672.00
2018-08-08T07:41:08.991Z,12848.00
2018-08-08T07:42:09.007Z,13068.00
2018-08-08T07:43:09.036Z,13280.00
2018-08-08T07:44:09.076Z,13508.00
2018-08-08T07:45:09.142Z,13700.00
2018-08-08T07:46:09.125Z,13908.00
2018-08-08T07:47:09.156Z,14120.00
2018-08-08T07:48:09.190Z,14344.00
2018-08-08T07:49:09.214Z,14512.00
2018-08-08T07:50:09.260Z,14660.00
2018-08-08T07:51:09.273Z,14776.00
2018-08-08T07:52:09.296Z,14844.00
2018-08-08T07:53:09.325Z,14948.00
2018-08-08T07:54:09.359Z,15028.00
2018-08-08T07:55:09.397Z,15120.00
2018-08-08T07:56:09.418Z,15224.00
2018-08-08T07:57:09.447Z,15332.00
2018-08-08T07:58:09.577Z,15440.00
2018-08-08T07:59:09.562Z,15480.00
2018-08-08T08:00:09.537Z,15512.00
2018-08-08T08:01:09.561Z,15500.00
2018-08-08T08:02:09.643Z,15520.00
2018-08-08T08:03:09.622Z,15524.00
2018-08-08T08:04:09.655Z,15584.00
2018-08-08T08:05:09.679Z,15632.00
2018-08-08T08:06:09.710Z,15696.00
2018-08-08T08:07:09.761Z,15796.00
2018-08-08T08:08:09.775Z,15736.00
2018-08-08T08:09:09.798Z,15656.00
2018-08-08T08:10:09.825Z,15428.00
2018-08-08T08:11:09.905Z,15516.00
2018-08-08T08:12:09.886Z,15836.00
2018-08-08T08:13:09.916Z,16152.00
2018-08-08T08:14:09.942Z,16212.00
2018-08-08T08:15:09.977Z,16372.00
2018-08-08T08:16:10.014Z,16052.00
2018-08-08T08:17:10.038Z,15904.00
2018-08-08T08:18:10.064Z,15748.00
2018-08-08T08:19:10.096Z,15668.00
2018-08-08T08:20:10.124Z,15416.00
2018-08-08T08:21:10.153Z,15292.00
2018-08-08T08:22:10.186Z,15128.00
2018-08-08T08:23:10.233Z,15148.00
2018-08-08T08:24:10.242Z,15172.00
2018-08-08T08:25:10.278Z,15180.00
2018-08-08T08:26:10.301Z,15272.00
2018-08-08T08:27:10.334Z,15408.00
2018-08-08T08:28:10.363Z,15576.00
2018-08-08T08:29:10.410Z,15564.00
2018-08-08T08:30:10.416Z,15552.00
2018-08-08T08:31:10.449Z,15380.00
2018-08-08T08:32:10.481Z,15040.00
2018-08-08T08:33:10.512Z,14748.00
2018-08-08T08:34:10.543Z,14344.00
2018-08-08T08:35:10.573Z,13892.00
2018-08-08T08:36:10.596Z,13332.00
2018-08-08T08:37:10.635Z,12788.00
2018-08-08T08:38:10.656Z,12176.00
2018-08-08T08:39:10.688Z,11616.00
2018-08-08T08:40:10.725Z,11128.00
2018-08-08T08:41:10.757Z,10748.00
2018-08-08T08:42:12.197Z,10504.00
2018-08-08T08:43:10.813Z,10344.00
2018-08-08T08:44:10.840Z,10252.00
2018-08-08T08:50:11.077Z,10408.00
2018-08-08T08:51:11.051Z,10640.00
2018-08-08T08:52:11.088Z,10872.00
2018-08-08T08:53:11.115Z,11036.00
2018-08-08T08:54:11.138Z,11132.00
2018-08-08T08:55:11.172Z,11240.00
2018-08-08T08:56:11.206Z,11284.00
2018-08-08T08:57:11.233Z,11220.00
2018-08-08T08:58:11.275Z,11000.00
2018-08-08T08:59:11.284Z,10636.00
2018-08-08T09:00:11.318Z,10364.00
2018-08-08T09:01:11.355Z,10084.00
2018-08-08T09:02:11.377Z,9892.00
2018-08-08T09:03:11.414Z,9896.00
2018-08-08T09:04:11.434Z,10200.00
2018-08-08T09:05:11.476Z,11064.00
2018-08-08T09:06:11.513Z,11960.00
2018-08-08T09:07:11.540Z,12520.00
2018-08-08T09:08:11.561Z,12472.00
2018-08-08T09:09:11.586Z,11932.00
2018-08-08T09:10:11.619Z,11692.00
2018-08-08T09:11:11.646Z,11376.00
2018-08-08T09:12:11.723Z,11396.00
2018-08-08T09:13:11.710Z,11232.00
2018-08-08T09:14:11.736Z,11796.00
2018-08-08T09:15:11.768Z,11924.00
2018-08-08T09:16:11.800Z,11952.00
2018-08-08T09:17:11.825Z,12068.00
2018-08-08T09:18:11.864Z,12272.00
2018-08-08T09:19:11.889Z,12376.00
2018-08-08T09:20:11.915Z,12492.00
2018-08-08T09:21:11.948Z,12776.00
2018-08-08T09:22:11.974Z,13264.00
2018-08-08T09:23:12.008Z,13920.00
2018-08-08T09:24:12.039Z,14588.00
2018-08-08T09:25:12.072Z,15480.00
2018-08-08T09:26:12.094Z,16312.00
2018-08-08T09:27:12.130Z,17284.00
2018-08-08T09:28:12.161Z,18080.00
2018-08-08T09:29:12.186Z,18624.00
2018-08-08T09:30:12.221Z,19776.00
2018-08-08T09:31:12.244Z,20768.00
2018-08-08T09:32:12.272Z,21984.00
2018-08-08T09:33:12.311Z,22240.00
2018-08-08T09:34:12.337Z,21440.00
2018-08-08T09:35:12.391Z,21024.00
2018-08-08T09:36:12.400Z,20672.00
2018-08-08T09:37:12.429Z,19776.00
2018-08-08T09:38:12.461Z,18720.00
2018-08-08T09:39:12.495Z,17472.00
2018-08-08T09:40:12.587Z,15988.00
2018-08-08T09:42:12.590Z,13572.00
2018-08-08T09:43:12.628Z,12456.00
2018-08-08T09:44:12.699Z,11844.00
2018-08-08T09:45:12.668Z,11688.00
2018-08-08T09:46:12.705Z,11836.00
2018-08-08T09:47:12.736Z,12292.00
2018-08-08T09:48:12.763Z,12868.00
2018-08-08T09:49:12.796Z,13368.00
2018-08-08T09:50:12.826Z,13856.00
2018-08-08T09:51:12.861Z,14312.00
2018-08-08T09:56:42.166Z,18240.00
2018-08-08T09:57:42.200Z,19040.00
2018-08-08T10:02:20.917Z,21280.00
2018-08-08T10:03:20.166Z,21504.00
2018-08-08T11:27:44.098Z,77664.00
2018-08-08T11:28:44.136Z,84640.00
2018-08-08T11:29:44.176Z,89184.00
2018-08-08T11:30:44.220Z,85472.00
2018-08-08T11:31:44.264Z,81632.00
2018-08-08T11:32:44.288Z,71680.00
2018-08-08T11:33:44.337Z,68704.00
2018-08-08T11:34:46.989Z,67104.00
2018-08-08T11:36:52.036Z,62912.00
2018-08-08T11:37:52.066Z,42720.00
2018-08-08T11:38:52.145Z,41728.00
2018-08-08T11:39:52.140Z,30848.00
2018-08-08T11:40:52.179Z,28960.00
2018-08-08T11:41:52.215Z,27168.00
2018-08-08T11:42:52.253Z,30560.00
2018-08-08T11:43:52.296Z,52128.00
2018-08-08T11:44:52.330Z,44832.00
2018-08-08T11:45:52.367Z,39360.00
2018-08-08T11:46:52.449Z,32608.00
2018-08-08T11:47:52.445Z,33376.00
2018-08-08T11:48:52.474Z,35904.00
2018-08-08T11:49:52.515Z,37888.00
2018-08-08T11:50:52.550Z,46336.00
2018-08-08T11:51:52.581Z,27648.00
2018-08-08T11:52:52.621Z,21792.00
2018-08-08T11:53:52.655Z,20640.00
2018-08-08T11:54:52.697Z,21408.00
2018-08-08T11:55:52.731Z,23296.00
2018-08-08T11:56:52.761Z,27936.00
2018-08-08T11:57:52.803Z,33376.00
2018-08-08T11:58:52.840Z,41760.00
2018-08-08T11:59:52.871Z,56320.00
2018-08-08T12:00:52.909Z,69632.00
2018-08-08T12:01:52.999Z,61824.00
2018-08-08T12:02:52.978Z,58048.00
2018-08-08T12:03:53.019Z,46592.00
2018-08-08T12:04:53.051Z,63712.00
2018-08-08T12:05:53.090Z,80480.00
2018-08-08T12:06:53.131Z,87296.00
2018-08-08T12:07:53.157Z,87040.00
2018-08-08T12:08:53.198Z,75328.00
2018-08-08T12:09:53.236Z,71456.00
2018-08-08T12:10:53.270Z,71104.00
2018-08-08T12:11:53.308Z,69792.00
2018-08-08T12:12:53.347Z,70240.00
2018-08-08T12:13:53.375Z,78976.00
2018-08-08T12:14:53.414Z,70304.00
2018-08-08T12:15:53.447Z,84736.00
2018-08-08T12:16:53.493Z,103168.00
2018-08-08T12:17:53.527Z,95520.00
2018-08-08T12:18:53.571Z,91904.00
2018-08-08T12:19:53.597Z,93792.00
2018-08-08T12:20:53.635Z,92992.00
2018-08-08T12:21:53.780Z,97088.00
2018-08-08T12:22:53.707Z,89184.00
2018-08-08T12:23:53.748Z,97248.00
2018-08-08T12:24:53.788Z,94816.00
2018-08-08T12:25:53.839Z,94816.00
2018-08-08T12:26:53.858Z,92096.00
2018-08-08T12:27:53.897Z,94656.00
2018-08-08T12:28:53.998Z,99648.00
2018-08-08T12:29:53.975Z,85056.00
2018-08-08T12:30:54.017Z,87040.00
2018-08-08T12:31:54.055Z,85216.00
2018-08-08T12:32:54.092Z,90496.00
2018-08-08T12:33:54.128Z,83200.00
2018-08-08T12:34:54.165Z,88448.00
2018-08-08T12:35:54.205Z,83104.00
2018-08-08T12:36:54.245Z,85888.00
2018-08-08T12:37:54.297Z,45216.00
2018-08-08T12:38:54.323Z,95680.00
2018-08-08T12:39:54.359Z,92416.00
2018-08-08T12:40:54.395Z,84256.00
2018-08-08T12:41:54.436Z,92384.00
2018-08-08T12:42:54.543Z,93856.00
2018-08-08T12:43:54.511Z,87648.00
2018-08-08T12:44:54.552Z,89856.00
2018-08-08T12:45:54.595Z,92704.00
2018-08-08T12:46:54.627Z,93088.00
2018-08-08T12:47:54.667Z,88000.00
2018-08-08T12:48:54.708Z,91264.00
2018-08-08T12:49:54.740Z,96352.00
2018-08-08T12:50:54.788Z,97792.00
2018-08-08T12:51:54.821Z,90816.00
2018-08-08T12:52:54.859Z,92192.00
2018-08-08T12:53:54.889Z,88512.00
2018-08-08T12:54:54.928Z,93792.00
2018-08-08T12:55:54.974Z,88384.00
2018-08-08T12:56:55.007Z,92512.00
2018-08-08T12:57:55.042Z,100928.00
2018-08-08T12:58:55.088Z,100704.00
2018-08-08T12:59:55.126Z,96672.00
2018-08-08T13:00:55.212Z,99872.00
2018-08-08T13:01:55.202Z,100448.00
2018-08-08T13:02:55.237Z,97856.00
2018-08-08T13:03:55.279Z,97760.00
2018-08-08T13:04:55.315Z,99296.00
2018-08-08T13:05:55.360Z,97280.00
2018-08-08T13:06:55.395Z,98048.00
2018-08-08T13:07:55.437Z,102976.00
2018-08-08T13:08:55.475Z,98240.00
2018-08-08T13:09:55.513Z,103360.00
2018-08-08T13:10:55.549Z,104064.00
2018-08-08T13:11:55.594Z,101408.00
2018-08-08T13:12:55.635Z,99712.00
2018-08-08T13:13:55.685Z,92640.00
2018-08-08T13:14:55.709Z,86720.00
2018-08-08T13:15:55.743Z,42688.00
2018-08-08T13:16:55.783Z,88640.00
2018-08-08T13:17:55.825Z,66912.00
2018-08-08T13:18:55.863Z,93728.00
2018-08-08T13:19:55.897Z,98656.00
2018-08-08T13:20:55.949Z,87904.00
2018-08-08T13:21:55.973Z,85440.00
2018-08-08T13:22:56.014Z,91392.00
2018-08-08T13:23:56.190Z,92800.00
2018-08-08T13:24:56.131Z,85280.00
2018-08-08T13:25:56.129Z,85664.00
2018-08-08T13:26:56.167Z,73088.00
2018-08-08T13:27:56.211Z,72480.00
2018-08-08T13:28:56.238Z,72416.00
2018-08-08T13:29:56.283Z,34976.00
2018-08-08T13:30:56.366Z,71520.00
2018-08-08T13:31:56.359Z,75392.00
2018-08-08T13:32:56.390Z,82912.00
2018-08-08T13:33:56.483Z,70816.00
2018-08-08T13:34:56.468Z,48640.00
2018-08-08T13:35:56.508Z,40448.00
2018-08-08T13:36:56.545Z,44416.00
2018-08-08T13:37:56.583Z,88512.00
2018-08-08T13:38:56.616Z,91456.00
2018-08-08T13:39:56.647Z,85344.00
2018-08-08T13:40:56.687Z,85536.00
2018-08-08T13:41:56.726Z,61184.00
2018-08-08T13:42:56.763Z,70912.00
2018-08-08T13:43:56.806Z,60096.00
2018-08-08T13:44:56.840Z,84416.00
2018-08-08T13:45:56.873Z,48640.00
2018-08-08T13:46:56.916Z,96672.00
2018-08-08T13:47:56.952Z,103488.00
2018-08-08T13:48:56.986Z,105728.00
2018-08-08T13:49:57.018Z,104160.00
2018-08-08T13:50:57.068Z,98112.00
2018-08-08T13:51:57.100Z,97984.00
2018-08-08T13:52:57.140Z,97728.00
2018-08-08T13:53:57.176Z,52992.00
2018-08-08T13:54:57.209Z,88384.00
2018-08-08T13:55:57.242Z,84608.00
2018-08-08T13:56:57.282Z,97664.00
2018-08-08T13:57:57.319Z,39712.00
2018-08-08T13:58:57.353Z,82912.00
2018-08-08T13:59:57.396Z,91392.00
2018-08-08T14:00:57.453Z,69312.00
2018-08-08T14:01:57.465Z,43552.00
2018-08-08T14:02:57.510Z,39744.00
2018-08-08T14:03:57.548Z,43168.00
2018-08-08T14:04:57.581Z,49472.00
2018-08-08T14:05:57.618Z,45696.00
2018-08-08T14:06:57.709Z,50592.00
2018-08-08T14:07:57.735Z,68736.00
2018-08-08T14:08:57.727Z,56480.00
2018-08-08T14:09:57.763Z,66656.00
2018-08-08T14:10:57.797Z,99904.00
2018-08-08T14:11:57.837Z,100608.00
2018-08-08T14:12:57.873Z,95296.00